sensor_id;sensor_type;location;lat;lon;timestamp;temperature;humidity
52439;DHT22;73188;52.948;6.012;2024-03-29T00:06:14;8.00;63.30
52439;DHT22;73188;52.948;6.012;2024-03-29T00:16:40;8.00;63.20
52439;DHT22;73188;52.948;6.012;2024-03-29T00:27:06;7.90;63.50
52439;DHT22;73188;52.948;6.012;2024-03-29T00:37:32;7.80;63.60
52439;DHT22;73188;52.948;6.012;2024-03-29T00:47:57;7.90;63.70
52439;DHT22;73188;52.948;6.012;2024-03-29T00:58:23;7.90;63.70
52439;DHT22;73188;52.948;6.012;2024-03-29T01:08:49;7.80;63.70
52439;DHT22;73188;52.948;6.012;2024-03-29T01:19:15;7.70;64.00
52439;DHT22;73188;52.948;6.012;2024-03-29T01:29:41;7.50;64.30
52439;DHT22;73188;52.948;6.012;2024-03-29T01:40:07;7.50;64.30
52439;DHT22;73188;52.948;6.012;2024-03-29T01:50:34;7.50;64.20
52439;DHT22;73188;52.948;6.012;2024-03-29T02:01:00;7.50;64.50
52439;DHT22;73188;52.948;6.012;2024-03-29T02:11:27;7.20;65.10
52439;DHT22;73188;52.948;6.012;2024-03-29T02:21:56;7.20;65.40
52439;DHT22;73188;52.948;6.012;2024-03-29T02:32:25;7.20;65.00
52439;DHT22;73188;52.948;6.012;2024-03-29T02:42:51;7.20;64.80
52439;DHT22;73188;52.948;6.012;2024-03-29T02:53:16;7.20;64.90
52439;DHT22;73188;52.948;6.012;2024-03-29T03:03:42;7.20;64.90
52439;DHT22;73188;52.948;6.012;2024-03-29T03:14:08;7.00;65.40
52439;DHT22;73188;52.948;6.012;2024-03-29T03:24:34;6.90;65.90
52439;DHT22;73188;52.948;6.012;2024-03-29T03:34:59;7.00;65.80
52439;DHT22;73188;52.948;6.012;2024-03-29T03:45:25;6.90;66.00
52439;DHT22;73188;52.948;6.012;2024-03-29T03:55:51;6.90;66.10
52439;DHT22;73188;52.948;6.012;2024-03-29T04:06:17;6.90;66.00
52439;DHT22;73188;52.948;6.012;2024-03-29T04:16:43;7.00;65.90
52439;DHT22;73188;52.948;6.012;2024-03-29T04:27:08;7.00;65.60
52439;DHT22;73188;52.948;6.012;2024-03-29T04:37:34;7.20;65.20
52439;DHT22;73188;52.948;6.012;2024-03-29T04:48:00;7.40;64.80
52439;DHT22;73188;52.948;6.012;2024-03-29T04:58:26;7.50;64.30
52439;DHT22;73188;52.948;6.012;2024-03-29T05:08:52;7.60;64.30
52439;DHT22;73188;52.948;6.012;2024-03-29T05:19:18;7.80;64.00
52439;DHT22;73188;52.948;6.012;2024-03-29T05:29:43;7.60;64.30
52439;DHT22;73188;52.948;6.012;2024-03-29T05:40:09;7.50;64.70
52439;DHT22;73188;52.948;6.012;2024-03-29T05:50:35;7.50;65.00
52439;DHT22;73188;52.948;6.012;2024-03-29T06:01:01;7.60;65.10
52439;DHT22;73188;52.948;6.012;2024-03-29T06:11:27;7.70;65.20
52439;DHT22;73188;52.948;6.012;2024-03-29T06:21:53;7.70;65.40
52439;DHT22;73188;52.948;6.012;2024-03-29T06:32:19;7.90;65.10
52439;DHT22;73188;52.948;6.012;2024-03-29T06:42:44;8.00;65.20
52439;DHT22;73188;52.948;6.012;2024-03-29T06:53:10;8.20;65.00
52439;DHT22;73188;52.948;6.012;2024-03-29T07:03:36;8.40;65.00
52439;DHT22;73188;52.948;6.012;2024-03-29T07:14:02;8.60;64.70
52439;DHT22;73188;52.948;6.012;2024-03-29T07:24:28;8.80;64.70
52439;DHT22;73188;52.948;6.012;2024-03-29T07:34:54;8.90;64.90
52439;DHT22;73188;52.948;6.012;2024-03-29T07:45:22;9.00;65.20
52439;DHT22;73188;52.948;6.012;2024-03-29T07:55:49;8.90;65.50
52439;DHT22;73188;52.948;6.012;2024-03-29T08:06:15;9.10;66.00
52439;DHT22;73188;52.948;6.012;2024-03-29T08:16:43;9.50;65.90
52439;DHT22;73188;52.948;6.012;2024-03-29T08:27:09;9.80;65.50
52439;DHT22;73188;52.948;6.012;2024-03-29T08:37:35;9.50;67.20
52439;DHT22;73188;52.948;6.012;2024-03-29T08:48:01;10.10;65.80
52439;DHT22;73188;52.948;6.012;2024-03-29T08:58:26;13.00;61.00
52439;DHT22;73188;52.948;6.012;2024-03-29T09:08:52;14.20;57.80
52439;DHT22;73188;52.948;6.012;2024-03-29T09:19:18;14.10;58.70
52439;DHT22;73188;52.948;6.012;2024-03-29T09:29:48;13.50;59.70
52439;DHT22;73188;52.948;6.012;2024-03-29T09:40:14;12.60;61.00
52439;DHT22;73188;52.948;6.012;2024-03-29T09:50:40;13.70;58.30
52439;DHT22;73188;52.948;6.012;2024-03-29T10:01:07;15.40;55.50
52439;DHT22;73188;52.948;6.012;2024-03-29T10:11:33;14.40;56.40
52439;DHT22;73188;52.948;6.012;2024-03-29T10:22:08;14.40;57.40
52439;DHT22;73188;52.948;6.012;2024-03-29T10:32:34;14.90;57.10
52439;DHT22;73188;52.948;6.012;2024-03-29T10:43:02;14.60;56.20
52439;DHT22;73188;52.948;6.012;2024-03-29T10:53:30;14.00;57.70
52439;DHT22;73188;52.948;6.012;2024-03-29T11:04:09;15.00;55.80
52439;DHT22;73188;52.948;6.012;2024-03-29T11:14:47;15.20;54.90
52439;DHT22;73188;52.948;6.012;2024-03-29T11:25:20;16.40;53.70
52439;DHT22;73188;52.948;6.012;2024-03-29T11:35:47;16.40;52.60
52439;DHT22;73188;52.948;6.012;2024-03-29T11:46:14;16.20;54.80
52439;DHT22;73188;52.948;6.012;2024-03-29T11:56:42;17.20;51.70
52439;DHT22;73188;52.948;6.012;2024-03-29T12:07:08;15.90;54.00
52439;DHT22;73188;52.948;6.012;2024-03-29T12:17:34;16.90;53.90
52439;DHT22;73188;52.948;6.012;2024-03-29T12:28:00;16.20;52.70
52439;DHT22;73188;52.948;6.012;2024-03-29T12:38:26;16.00;54.60
52439;DHT22;73188;52.948;6.012;2024-03-29T12:49:01;15.80;55.20
52439;DHT22;73188;52.948;6.012;2024-03-29T12:59:30;15.40;54.30
52439;DHT22;73188;52.948;6.012;2024-03-29T13:09:59;15.50;55.20
52439;DHT22;73188;52.948;6.012;2024-03-29T13:20:28;15.60;55.00
52439;DHT22;73188;52.948;6.012;2024-03-29T13:30:54;14.40;57.60
52439;DHT22;73188;52.948;6.012;2024-03-29T13:41:22;13.70;58.30
52439;DHT22;73188;52.948;6.012;2024-03-29T13:51:47;14.70;56.80
52439;DHT22;73188;52.948;6.012;2024-03-29T14:02:15;15.50;56.20
52439;DHT22;73188;52.948;6.012;2024-03-29T14:12:42;15.00;55.80
52439;DHT22;73188;52.948;6.012;2024-03-29T14:23:10;15.00;56.00
52439;DHT22;73188;52.948;6.012;2024-03-29T14:33:38;14.90;56.00
52439;DHT22;73188;52.948;6.012;2024-03-29T14:44:03;14.70;56.20
52439;DHT22;73188;52.948;6.012;2024-03-29T14:54:29;14.20;55.70
52439;DHT22;73188;52.948;6.012;2024-03-29T15:04:55;14.10;57.10
52439;DHT22;73188;52.948;6.012;2024-03-29T15:15:21;14.70;56.90
52439;DHT22;73188;52.948;6.012;2024-03-29T15:25:47;14.30;56.40
52439;DHT22;73188;52.948;6.012;2024-03-29T15:36:13;14.40;56.70
52439;DHT22;73188;52.948;6.012;2024-03-29T15:46:38;14.10;55.50
52439;DHT22;73188;52.948;6.012;2024-03-29T15:57:05;13.70;56.10
52439;DHT22;73188;52.948;6.012;2024-03-29T16:07:31;13.90;57.90
52439;DHT22;73188;52.948;6.012;2024-03-29T16:17:57;13.50;57.20
52439;DHT22;73188;52.948;6.012;2024-03-29T16:28:23;13.30;57.90
52439;DHT22;73188;52.948;6.012;2024-03-29T16:38:49;13.50;58.60
52439;DHT22;73188;52.948;6.012;2024-03-29T16:49:15;13.30;58.40
52439;DHT22;73188;52.948;6.012;2024-03-29T16:59:41;13.30;59.10
52439;DHT22;73188;52.948;6.012;2024-03-29T17:10:09;13.00;60.20
52439;DHT22;73188;52.948;6.012;2024-03-29T17:20:34;12.70;60.40
52439;DHT22;73188;52.948;6.012;2024-03-29T17:31:00;12.50;60.70
52439;DHT22;73188;52.948;6.012;2024-03-29T17:41:26;12.20;62.20
52439;DHT22;73188;52.948;6.012;2024-03-29T17:51:52;11.90;62.90
52439;DHT22;73188;52.948;6.012;2024-03-29T18:02:18;11.40;64.50
52439;DHT22;73188;52.948;6.012;2024-03-29T18:12:43;11.00;64.70
52439;DHT22;73188;52.948;6.012;2024-03-29T18:23:09;10.60;65.40
52439;DHT22;73188;52.948;6.012;2024-03-29T18:33:35;10.20;66.00
52439;DHT22;73188;52.948;6.012;2024-03-29T18:44:02;10.00;67.10
52439;DHT22;73188;52.948;6.012;2024-03-29T18:54:31;9.80;66.20
52439;DHT22;73188;52.948;6.012;2024-03-29T19:04:57;9.70;66.90
52439;DHT22;73188;52.948;6.012;2024-03-29T19:15:30;9.40;68.00
52439;DHT22;73188;52.948;6.012;2024-03-29T19:25:56;9.20;67.90
52439;DHT22;73188;52.948;6.012;2024-03-29T19:36:21;9.20;68.50
52439;DHT22;73188;52.948;6.012;2024-03-29T19:46:48;9.30;67.70
52439;DHT22;73188;52.948;6.012;2024-03-29T19:57:13;9.20;67.90
52439;DHT22;73188;52.948;6.012;2024-03-29T20:07:39;9.20;68.30
52439;DHT22;73188;52.948;6.012;2024-03-29T20:18:07;9.20;68.50
52439;DHT22;73188;52.948;6.012;2024-03-29T20:28:34;9.20;68.30
52439;DHT22;73188;52.948;6.012;2024-03-29T20:39:00;9.10;68.90
52439;DHT22;73188;52.948;6.012;2024-03-29T20:49:26;9.00;69.70
52439;DHT22;73188;52.948;6.012;2024-03-29T20:59:53;9.00;69.60
52439;DHT22;73188;52.948;6.012;2024-03-29T21:10:19;9.10;69.60
52439;DHT22;73188;52.948;6.012;2024-03-29T21:20:44;9.20;68.90
52439;DHT22;73188;52.948;6.012;2024-03-29T21:31:10;9.40;69.00
52439;DHT22;73188;52.948;6.012;2024-03-29T21:41:36;9.20;69.10
52439;DHT22;73188;52.948;6.012;2024-03-29T21:52:02;9.10;69.00
52439;DHT22;73188;52.948;6.012;2024-03-29T22:02:29;9.10;69.20
52439;DHT22;73188;52.948;6.012;2024-03-29T22:12:55;9.00;69.10
52439;DHT22;73188;52.948;6.012;2024-03-29T22:23:20;9.00;69.50
52439;DHT22;73188;52.948;6.012;2024-03-29T22:33:46;9.00;69.40
52439;DHT22;73188;52.948;6.012;2024-03-29T22:44:15;9.00;69.50
52439;DHT22;73188;52.948;6.012;2024-03-29T22:54:40;9.00;69.30
52439;DHT22;73188;52.948;6.012;2024-03-29T23:05:06;8.90;69.40
52439;DHT22;73188;52.948;6.012;2024-03-29T23:15:32;9.00;70.20
52439;DHT22;73188;52.948;6.012;2024-03-29T23:25:58;9.20;69.70
52439;DHT22;73188;52.948;6.012;2024-03-29T23:36:24;9.40;69.90
52439;DHT22;73188;52.948;6.012;2024-03-29T23:46:50;9.60;70.10
52439;DHT22;73188;52.948;6.012;2024-03-29T23:57:16;10.00;70.00
